Abbotsford Airport
CYXX : rendu visible

Aérodrome :











RETROUVEZ-NOUS SUR...

 
LOGIN :

S'inscrire | Disclaimer

   EN    FR    IT 

 









Légende :    VFR   VFR Marginal   IFR   IFR Intensif   IFR Très Intensif
Visi : 
Plafond : 
>= 8 km
>= 3000ft
5 à 8 km
1000 à 3000 ft
1500m à 5 km
500 à 1000 ft
800 à 1500m
200 à 500 ft
< 800m
< 200 ft
Symboles :   Orages  Brouillard  Fortes neiges  Fortes précipitations  Vent > 20 kt






- Altitude de l'aérodrome : 195 ft
- Code IATA : YXX


CYXX - Abbotsford

DERNIER METAR :
  • 091000Z 02007KT 15SM SCT043 02/01 A3028 RMK SC4 SLP257

METARs EXPIRÉS :
  • 090900Z 03006KT 15SM SKC 01/00 A3028 RMK SLP256
  • 090800Z 04005KT 15SM FEW210 03/01 A3027 RMK CI1 SLP255

TAF TAF CYXX
Valide du 09 à 06h jusqu'au 10 à 06h UTC


090538Z 0906/1006 VRB03KT P6SM BKN200
FM090700 VRB03KT 2SM BR SCT030 SCT200
TEMPO 0907/0916 P6SM NSW BKN030
PROB30 0908/0916 1SM -DZ BR BKN003
FM091600 VRB03KT P6SM SCT030 RMK NXT FCST BY 091200Z



MET'MAP, la Météo Aéronautique d'un coup d'oeil ! - Copyright ORBIFLY Décembre 2007 - Disclaimer

ORBIFLY MET'MAP TEAM :

Programmation & Développement : Alexandra Zaïnal
Sur une idée originale de : Baudouin d'Aumeries
Assistance à la programmation : Marc-Olivier Méhu
Soutien technique & logistique : Manuel Goepfert

Contact : metmap@orbifly.com




SOURCES & CREDITS :

   NOAA       Earth
Advisory